sensor_id;sensor_type;location;lat;lon;timestamp;P1;durP1;ratioP1;P2;durP2;ratioP2
57199;SDS011;43061;43.902;22.266;2022-08-11T00:01:11;10.88;;;8.27;;
57199;SDS011;43061;43.902;22.266;2022-08-11T00:03:42;12.52;;;8.38;;
57199;SDS011;43061;43.902;22.266;2022-08-11T00:06:09;11.60;;;8.30;;
57199;SDS011;43061;43.902;22.266;2022-08-11T00:08:38;13.40;;;8.35;;
57199;SDS011;43061;43.902;22.266;2022-08-11T00:11:08;11.63;;;8.80;;
57199;SDS011;43061;43.902;22.266;2022-08-11T00:13:40;11.25;;;8.00;;
57199;SDS011;43061;43.902;22.266;2022-08-11T00:16:14;14.10;;;8.18;;
57199;SDS011;43061;43.902;22.266;2022-08-11T00:18:46;12.60;;;8.43;;
57199;SDS011;43061;43.902;22.266;2022-08-11T00:21:12;12.25;;;8.02;;
57199;SDS011;43061;43.902;22.266;2022-08-11T00:23:43;12.07;;;8.75;;
57199;SDS011;43061;43.902;22.266;2022-08-11T00:26:11;12.73;;;8.35;;
57199;SDS011;43061;43.902;22.266;2022-08-11T00:28:37;12.80;;;8.10;;
57199;SDS011;43061;43.902;22.266;2022-08-11T00:31:04;12.77;;;7.93;;
57199;SDS011;43061;43.902;22.266;2022-08-11T00:33:33;11.85;;;8.50;;
57199;SDS011;43061;43.902;22.266;2022-08-11T00:36:00;12.35;;;8.20;;
57199;SDS011;43061;43.902;22.266;2022-08-11T00:38:29;13.63;;;8.35;;
57199;SDS011;43061;43.902;22.266;2022-08-11T00:46:17;12.43;;;8.48;;
57199;SDS011;43061;43.902;22.266;2022-08-11T00:48:47;11.90;;;8.43;;
57199;SDS011;43061;43.902;22.266;2022-08-11T00:53:48;21.20;;;9.40;;
57199;SDS011;43061;43.902;22.266;2022-08-11T01:06:59;18.63;;;11.50;;
57199;SDS011;43061;43.902;22.266;2022-08-11T01:24:58;20.70;;;12.40;;
57199;SDS011;43061;43.902;22.266;2022-08-11T01:33:02;19.45;;;12.90;;
57199;SDS011;43061;43.902;22.266;2022-08-11T01:35:34;19.92;;;12.18;;
57199;SDS011;43061;43.902;22.266;2022-08-11T02:03:54;26.50;;;13.65;;
57199;SDS011;43061;43.902;22.266;2022-08-11T02:06:36;23.83;;;14.00;;
57199;SDS011;43061;43.902;22.266;2022-08-11T02:11:54;24.45;;;14.07;;
57199;SDS011;43061;43.902;22.266;2022-08-11T02:17:20;20.55;;;13.48;;
57199;SDS011;43061;43.902;22.266;2022-08-11T02:19:56;18.65;;;11.45;;
57199;SDS011;43061;43.902;22.266;2022-08-11T02:22:51;22.52;;;12.50;;
57199;SDS011;43061;43.902;22.266;2022-08-11T02:28:16;22.27;;;12.30;;
57199;SDS011;43061;43.902;22.266;2022-08-11T02:33:42;24.75;;;14.55;;
57199;SDS011;43061;43.902;22.266;2022-08-11T02:36:35;28.20;;;14.65;;
57199;SDS011;43061;43.902;22.266;2022-08-11T02:39:03;26.33;;;14.50;;
57199;SDS011;43061;43.902;22.266;2022-08-11T02:44:22;23.50;;;14.85;;
57199;SDS011;43061;43.902;22.266;2022-08-11T02:49:27;28.13;;;14.98;;
57199;SDS011;43061;43.902;22.266;2022-08-11T02:52:19;29.15;;;15.43;;
57199;SDS011;43061;43.902;22.266;2022-08-11T02:58:09;24.33;;;14.57;;
57199;SDS011;43061;43.902;22.266;2022-08-11T03:00:24;28.83;;;17.17;;
57199;SDS011;43061;43.902;22.266;2022-08-11T03:05:43;28.08;;;16.10;;
57199;SDS011;43061;43.902;22.266;2022-08-11T03:08:30;26.75;;;16.27;;
57199;SDS011;43061;43.902;22.266;2022-08-11T03:11:06;28.80;;;17.13;;
57199;SDS011;43061;43.902;22.266;2022-08-11T03:19:37;24.05;;;16.35;;
57199;SDS011;43061;43.902;22.266;2022-08-11T03:22:09;28.77;;;17.92;;
57199;SDS011;43061;43.902;22.266;2022-08-11T03:27:07;24.77;;;15.15;;
57199;SDS011;43061;43.902;22.266;2022-08-11T03:32:21;29.83;;;18.20;;
57199;SDS011;43061;43.902;22.266;2022-08-11T03:34:49;28.90;;;17.95;;
57199;SDS011;43061;43.902;22.266;2022-08-11T03:37:34;34.65;;;19.75;;
57199;SDS011;43061;43.902;22.266;2022-08-11T03:43:10;33.83;;;18.70;;
57199;SDS011;43061;43.902;22.266;2022-08-11T04:20:11;23.83;;;16.80;;
57199;SDS011;43061;43.902;22.266;2022-08-11T04:25:48;25.92;;;17.17;;
57199;SDS011;43061;43.902;22.266;2022-08-11T04:33:32;21.95;;;16.25;;
57199;SDS011;43061;43.902;22.266;2022-08-11T05:12:35;19.27;;;16.13;;
57199;SDS011;43061;43.902;22.266;2022-08-11T05:15:05;21.77;;;17.33;;
57199;SDS011;43061;43.902;22.266;2022-08-11T05:18:06;14.63;;;10.93;;
57199;SDS011;43061;43.902;22.266;2022-08-11T05:20:53;16.30;;;12.65;;
57199;SDS011;43061;43.902;22.266;2022-08-11T05:23:39;17.05;;;12.23;;
57199;SDS011;43061;43.902;22.266;2022-08-11T05:26:25;18.98;;;12.98;;
57199;SDS011;43061;43.902;22.266;2022-08-11T05:32:37;16.75;;;11.35;;
57199;SDS011;43061;43.902;22.266;2022-08-11T05:35:35;17.20;;;11.88;;
57199;SDS011;43061;43.902;22.266;2022-08-11T05:38:03;20.38;;;11.32;;
57199;SDS011;43061;43.902;22.266;2022-08-11T05:40:53;18.80;;;11.88;;
57199;SDS011;43061;43.902;22.266;2022-08-11T05:43:40;18.08;;;11.77;;
57199;SDS011;43061;43.902;22.266;2022-08-11T05:46:26;16.23;;;11.82;;
57199;SDS011;43061;43.902;22.266;2022-08-11T05:49:12;21.05;;;12.68;;
57199;SDS011;43061;43.902;22.266;2022-08-11T05:51:56;18.42;;;13.85;;
57199;SDS011;43061;43.902;22.266;2022-08-11T05:54:41;17.00;;;11.50;;
57199;SDS011;43061;43.902;22.266;2022-08-11T05:57:28;15.60;;;11.82;;
57199;SDS011;43061;43.902;22.266;2022-08-11T05:59:58;20.15;;;13.07;;
57199;SDS011;43061;43.902;22.266;2022-08-11T06:02:26;19.45;;;12.73;;
57199;SDS011;43061;43.902;22.266;2022-08-11T06:04:55;20.38;;;13.60;;
57199;SDS011;43061;43.902;22.266;2022-08-11T06:07:26;20.65;;;13.40;;
57199;SDS011;43061;43.902;22.266;2022-08-11T06:09:53;18.30;;;12.80;;
57199;SDS011;43061;43.902;22.266;2022-08-11T06:12:21;21.35;;;13.30;;
57199;SDS011;43061;43.902;22.266;2022-08-11T06:14:54;21.13;;;14.30;;
57199;SDS011;43061;43.902;22.266;2022-08-11T06:17:25;23.73;;;13.63;;
57199;SDS011;43061;43.902;22.266;2022-08-11T06:19:51;19.80;;;12.52;;
57199;SDS011;43061;43.902;22.266;2022-08-11T06:22:23;23.25;;;13.40;;
57199;SDS011;43061;43.902;22.266;2022-08-11T06:24:52;24.20;;;13.70;;
57199;SDS011;43061;43.902;22.266;2022-08-11T06:27:22;23.33;;;13.90;;
57199;SDS011;43061;43.902;22.266;2022-08-11T06:29:52;21.13;;;13.25;;
57199;SDS011;43061;43.902;22.266;2022-08-11T06:32:19;26.00;;;13.82;;
57199;SDS011;43061;43.902;22.266;2022-08-11T06:34:57;25.92;;;14.40;;
57199;SDS011;43061;43.902;22.266;2022-08-11T06:37:34;24.08;;;14.90;;
57199;SDS011;43061;43.902;22.266;2022-08-11T06:42:48;25.50;;;15.43;;
57199;SDS011;43061;43.902;22.266;2022-08-11T06:47:44;26.45;;;14.90;;
57199;SDS011;43061;43.902;22.266;2022-08-11T06:50:18;26.88;;;15.00;;
57199;SDS011;43061;43.902;22.266;2022-08-11T06:53:04;21.70;;;14.10;;
57199;SDS011;43061;43.902;22.266;2022-08-11T06:55:31;22.65;;;13.98;;
57199;SDS011;43061;43.902;22.266;2022-08-11T06:58:19;27.27;;;15.18;;
57199;SDS011;43061;43.902;22.266;2022-08-11T07:01:06;24.13;;;14.85;;
57199;SDS011;43061;43.902;22.266;2022-08-11T07:03:36;26.10;;;14.48;;
57199;SDS011;43061;43.902;22.266;2022-08-11T07:06:07;24.83;;;15.25;;
57199;SDS011;43061;43.902;22.266;2022-08-11T07:14:25;16.00;;;12.45;;
57199;SDS011;43061;43.902;22.266;2022-08-11T07:17:13;20.42;;;11.85;;
57199;SDS011;43061;43.902;22.266;2022-08-11T07:19:41;17.52;;;11.20;;
57199;SDS011;43061;43.902;22.266;2022-08-11T07:22:27;14.60;;;11.07;;
57199;SDS011;43061;43.902;22.266;2022-08-11T07:25:14;14.75;;;10.32;;
57199;SDS011;43061;43.902;22.266;2022-08-11T07:30:47;14.65;;;10.05;;
57199;SDS011;43061;43.902;22.266;2022-08-11T07:33:21;14.10;;;10.68;;
57199;SDS011;43061;43.902;22.266;2022-08-11T07:35:51;16.23;;;9.48;;
57199;SDS011;43061;43.902;22.266;2022-08-11T07:38:23;13.52;;;9.85;;
57199;SDS011;43061;43.902;22.266;2022-08-11T07:41:08;13.15;;;9.70;;
57199;SDS011;43061;43.902;22.266;2022-08-11T07:43:34;14.07;;;9.60;;
57199;SDS011;43061;43.902;22.266;2022-08-11T07:46:00;15.43;;;9.68;;
57199;SDS011;43061;43.902;22.266;2022-08-11T07:48:47;14.23;;;9.50;;
57199;SDS011;43061;43.902;22.266;2022-08-11T07:51:32;11.18;;;9.02;;
57199;SDS011;43061;43.902;22.266;2022-08-11T07:54:16;11.90;;;8.90;;
57199;SDS011;43061;43.902;22.266;2022-08-11T07:56:43;11.23;;;9.20;;
57199;SDS011;43061;43.902;22.266;2022-08-11T07:59:09;13.43;;;9.48;;
57199;SDS011;43061;43.902;22.266;2022-08-11T08:01:55;13.00;;;9.48;;
57199;SDS011;43061;43.902;22.266;2022-08-11T08:04:40;11.73;;;8.50;;
57199;SDS011;43061;43.902;22.266;2022-08-11T08:07:25;13.35;;;9.30;;
57199;SDS011;43061;43.902;22.266;2022-08-11T08:10:09;14.10;;;9.25;;
57199;SDS011;43061;43.902;22.266;2022-08-11T08:12:54;12.68;;;8.77;;
57199;SDS011;43061;43.902;22.266;2022-08-11T08:15:39;13.82;;;9.60;;
57199;SDS011;43061;43.902;22.266;2022-08-11T08:18:24;13.57;;;9.25;;
57199;SDS011;43061;43.902;22.266;2022-08-11T08:20:51;12.98;;;9.25;;
57199;SDS011;43061;43.902;22.266;2022-08-11T08:23:20;13.45;;;9.00;;
57199;SDS011;43061;43.902;22.266;2022-08-11T08:25:59;12.18;;;8.35;;
57199;SDS011;43061;43.902;22.266;2022-08-11T08:28:25;12.00;;;7.82;;
57199;SDS011;43061;43.902;22.266;2022-08-11T08:30:52;10.07;;;7.60;;
57199;SDS011;43061;43.902;22.266;2022-08-11T08:33:27;10.82;;;7.97;;
57199;SDS011;43061;43.902;22.266;2022-08-11T08:35:55;10.02;;;7.85;;
57199;SDS011;43061;43.902;22.266;2022-08-11T08:38:39;11.40;;;7.65;;
57199;SDS011;43061;43.902;22.266;2022-08-11T08:41:06;10.55;;;7.95;;
57199;SDS011;43061;43.902;22.266;2022-08-11T08:43:32;10.77;;;8.05;;
57199;SDS011;43061;43.902;22.266;2022-08-11T08:46:00;9.75;;;7.55;;
57199;SDS011;43061;43.902;22.266;2022-08-11T08:48:26;10.48;;;7.60;;
57199;SDS011;43061;43.902;22.266;2022-08-11T08:51:02;10.63;;;7.07;;
57199;SDS011;43061;43.902;22.266;2022-08-11T08:56:15;10.10;;;7.68;;
57199;SDS011;43061;43.902;22.266;2022-08-11T08:58:42;11.70;;;8.10;;
57199;SDS011;43061;43.902;22.266;2022-08-11T09:01:11;9.77;;;7.25;;
57199;SDS011;43061;43.902;22.266;2022-08-11T09:03:38;12.90;;;7.13;;
57199;SDS011;43061;43.902;22.266;2022-08-11T09:06:04;9.15;;;7.10;;
57199;SDS011;43061;43.902;22.266;2022-08-11T09:08:31;10.05;;;7.00;;
57199;SDS011;43061;43.902;22.266;2022-08-11T09:10:59;9.13;;;7.05;;
57199;SDS011;43061;43.902;22.266;2022-08-11T09:13:54;9.00;;;6.60;;
57199;SDS011;43061;43.902;22.266;2022-08-11T09:16:21;8.98;;;6.43;;
57199;SDS011;43061;43.902;22.266;2022-08-11T09:18:48;9.77;;;5.85;;
57199;SDS011;43061;43.902;22.266;2022-08-11T09:21:14;8.73;;;6.05;;
57199;SDS011;43061;43.902;22.266;2022-08-11T09:23:41;7.82;;;5.75;;
57199;SDS011;43061;43.902;22.266;2022-08-11T09:26:26;8.07;;;5.50;;
57199;SDS011;43061;43.902;22.266;2022-08-11T09:29:11;7.53;;;5.00;;
57199;SDS011;43061;43.902;22.266;2022-08-11T09:31:38;10.38;;;5.43;;
57199;SDS011;43061;43.902;22.266;2022-08-11T09:34:04;9.02;;;5.50;;
57199;SDS011;43061;43.902;22.266;2022-08-11T09:36:31;9.40;;;6.13;;
57199;SDS011;43061;43.902;22.266;2022-08-11T09:39:16;7.00;;;4.72;;
57199;SDS011;43061;43.902;22.266;2022-08-11T09:42:15;7.10;;;5.45;;
57199;SDS011;43061;43.902;22.266;2022-08-11T09:44:42;9.57;;;5.75;;
57199;SDS011;43061;43.902;22.266;2022-08-11T09:47:17;8.68;;;5.10;;
57199;SDS011;43061;43.902;22.266;2022-08-11T09:49:44;8.10;;;5.53;;
57199;SDS011;43061;43.902;22.266;2022-08-11T09:52:11;7.30;;;5.40;;
57199;SDS011;43061;43.902;22.266;2022-08-11T09:54:41;7.57;;;5.25;;
57199;SDS011;43061;43.902;22.266;2022-08-11T09:57:08;9.55;;;5.30;;
57199;SDS011;43061;43.902;22.266;2022-08-11T09:59:53;10.82;;;5.63;;
57199;SDS011;43061;43.902;22.266;2022-08-11T10:02:22;7.90;;;5.60;;
57199;SDS011;43061;43.902;22.266;2022-08-11T10:04:50;8.80;;;5.25;;
57199;SDS011;43061;43.902;22.266;2022-08-11T10:07:18;7.93;;;5.00;;
57199;SDS011;43061;43.902;22.266;2022-08-11T10:09:48;10.57;;;7.28;;
57199;SDS011;43061;43.902;22.266;2022-08-11T10:12:19;11.32;;;6.60;;
57199;SDS011;43061;43.902;22.266;2022-08-11T10:14:47;10.93;;;6.22;;
57199;SDS011;43061;43.902;22.266;2022-08-11T10:17:33;10.13;;;6.63;;
57199;SDS011;43061;43.902;22.266;2022-08-11T10:20:03;8.57;;;4.90;;
57199;SDS011;43061;43.902;22.266;2022-08-11T10:22:32;9.00;;;4.75;;
57199;SDS011;43061;43.902;22.266;2022-08-11T10:25:17;6.90;;;4.40;;
57199;SDS011;43061;43.902;22.266;2022-08-11T10:28:03;7.05;;;4.20;;
57199;SDS011;43061;43.902;22.266;2022-08-11T10:30:32;6.47;;;4.20;;
57199;SDS011;43061;43.902;22.266;2022-08-11T10:33:17;8.27;;;3.85;;
57199;SDS011;43061;43.902;22.266;2022-08-11T10:36:02;8.05;;;4.07;;
57199;SDS011;43061;43.902;22.266;2022-08-11T10:38:30;7.28;;;4.30;;
57199;SDS011;43061;43.902;22.266;2022-08-11T10:40:56;6.50;;;3.88;;
57199;SDS011;43061;43.902;22.266;2022-08-11T10:43:43;6.25;;;3.75;;
57199;SDS011;43061;43.902;22.266;2022-08-11T10:46:09;7.50;;;3.80;;
57199;SDS011;43061;43.902;22.266;2022-08-11T10:48:55;6.70;;;3.70;;
57199;SDS011;43061;43.902;22.266;2022-08-11T10:51:23;5.85;;;3.60;;
57199;SDS011;43061;43.902;22.266;2022-08-11T10:54:09;6.57;;;3.38;;
57199;SDS011;43061;43.902;22.266;2022-08-11T10:56:54;5.88;;;3.60;;
57199;SDS011;43061;43.902;22.266;2022-08-11T10:59:38;6.32;;;3.67;;
57199;SDS011;43061;43.902;22.266;2022-08-11T11:02:07;6.30;;;3.30;;
57199;SDS011;43061;43.902;22.266;2022-08-11T11:05:19;6.90;;;3.00;;
57199;SDS011;43061;43.902;22.266;2022-08-11T11:07:21;6.68;;;3.10;;
57199;SDS011;43061;43.902;22.266;2022-08-11T11:09:56;6.68;;;3.03;;
57199;SDS011;43061;43.902;22.266;2022-08-11T11:12:24;5.63;;;2.97;;
57199;SDS011;43061;43.902;22.266;2022-08-11T11:15:11;8.45;;;3.50;;
57199;SDS011;43061;43.902;22.266;2022-08-11T11:17:58;6.57;;;3.20;;
57199;SDS011;43061;43.902;22.266;2022-08-11T11:23:00;5.88;;;3.25;;
57199;SDS011;43061;43.902;22.266;2022-08-11T11:33:25;6.03;;;2.65;;
57199;SDS011;43061;43.902;22.266;2022-08-11T11:36:00;6.15;;;2.60;;
57199;SDS011;43061;43.902;22.266;2022-08-11T11:38:30;5.13;;;2.47;;
57199;SDS011;43061;43.902;22.266;2022-08-11T11:40:56;4.60;;;2.33;;
57199;SDS011;43061;43.902;22.266;2022-08-11T11:43:41;4.60;;;2.70;;
57199;SDS011;43061;43.902;22.266;2022-08-11T11:46:09;5.20;;;2.90;;
57199;SDS011;43061;43.902;22.266;2022-08-11T11:48:36;7.05;;;2.80;;
57199;SDS011;43061;43.902;22.266;2022-08-11T11:51:02;5.10;;;2.70;;
57199;SDS011;43061;43.902;22.266;2022-08-11T11:53:29;3.95;;;2.20;;
57199;SDS011;43061;43.902;22.266;2022-08-11T11:55:55;5.70;;;2.58;;
57199;SDS011;43061;43.902;22.266;2022-08-11T11:58:22;4.85;;;2.60;;
57199;SDS011;43061;43.902;22.266;2022-08-11T12:01:07;5.93;;;3.50;;
57199;SDS011;43061;43.902;22.266;2022-08-11T12:03:40;5.00;;;2.75;;
57199;SDS011;43061;43.902;22.266;2022-08-11T12:06:08;6.03;;;3.00;;
57199;SDS011;43061;43.902;22.266;2022-08-11T12:08:38;4.38;;;2.83;;
57199;SDS011;43061;43.902;22.266;2022-08-11T12:11:05;5.82;;;2.90;;
57199;SDS011;43061;43.902;22.266;2022-08-11T12:13:59;6.15;;;2.83;;
57199;SDS011;43061;43.902;22.266;2022-08-11T12:16:27;5.93;;;3.10;;
57199;SDS011;43061;43.902;22.266;2022-08-11T12:19:04;7.65;;;3.10;;
57199;SDS011;43061;43.902;22.266;2022-08-11T12:21:30;5.78;;;2.97;;
57199;SDS011;43061;43.902;22.266;2022-08-11T12:23:57;5.05;;;2.75;;
57199;SDS011;43061;43.902;22.266;2022-08-11T12:26:43;4.80;;;3.17;;
57199;SDS011;43061;43.902;22.266;2022-08-11T12:29:12;5.93;;;2.97;;
57199;SDS011;43061;43.902;22.266;2022-08-11T12:31:39;4.93;;;3.20;;
57199;SDS011;43061;43.902;22.266;2022-08-11T12:34:07;4.55;;;2.80;;
57199;SDS011;43061;43.902;22.266;2022-08-11T12:36:37;4.63;;;2.70;;
57199;SDS011;43061;43.902;22.266;2022-08-11T12:39:05;5.15;;;2.70;;
57199;SDS011;43061;43.902;22.266;2022-08-11T12:41:32;6.05;;;2.80;;
57199;SDS011;43061;43.902;22.266;2022-08-11T12:44:17;4.85;;;2.95;;
57199;SDS011;43061;43.902;22.266;2022-08-11T12:47:06;6.43;;;3.00;;
57199;SDS011;43061;43.902;22.266;2022-08-11T12:49:34;4.70;;;2.90;;
57199;SDS011;43061;43.902;22.266;2022-08-11T12:52:40;5.70;;;3.03;;
57199;SDS011;43061;43.902;22.266;2022-08-11T12:55:10;4.97;;;2.90;;
57199;SDS011;43061;43.902;22.266;2022-08-11T12:57:37;5.15;;;2.90;;
57199;SDS011;43061;43.902;22.266;2022-08-11T13:00:23;4.97;;;2.90;;
57199;SDS011;43061;43.902;22.266;2022-08-11T13:03:08;5.90;;;2.80;;
57199;SDS011;43061;43.902;22.266;2022-08-11T13:05:54;5.47;;;3.00;;
57199;SDS011;43061;43.902;22.266;2022-08-11T13:08:22;5.00;;;2.60;;
57199;SDS011;43061;43.902;22.266;2022-08-11T13:10:49;5.95;;;2.90;;
57199;SDS011;43061;43.902;22.266;2022-08-11T13:13:33;6.00;;;2.38;;
57199;SDS011;43061;43.902;22.266;2022-08-11T13:16:00;6.38;;;2.40;;
57199;SDS011;43061;43.902;22.266;2022-08-11T13:18:26;5.50;;;2.70;;
57199;SDS011;43061;43.902;22.266;2022-08-11T13:20:53;5.47;;;3.00;;
57199;SDS011;43061;43.902;22.266;2022-08-11T13:23:20;6.72;;;2.70;;
57199;SDS011;43061;43.902;22.266;2022-08-11T13:25:47;4.53;;;2.90;;
57199;SDS011;43061;43.902;22.266;2022-08-11T13:28:13;5.10;;;2.75;;
57199;SDS011;43061;43.902;22.266;2022-08-11T13:30:41;5.93;;;3.10;;
57199;SDS011;43061;43.902;22.266;2022-08-11T13:33:26;8.32;;;3.35;;
57199;SDS011;43061;43.902;22.266;2022-08-11T13:35:53;7.95;;;3.40;;
57199;SDS011;43061;43.902;22.266;2022-08-11T13:38:20;6.57;;;3.10;;
57199;SDS011;43061;43.902;22.266;2022-08-11T13:40:51;6.07;;;3.75;;
57199;SDS011;43061;43.902;22.266;2022-08-11T13:43:18;7.90;;;3.65;;
57199;SDS011;43061;43.902;22.266;2022-08-11T13:45:45;5.70;;;3.45;;
57199;SDS011;43061;43.902;22.266;2022-08-11T13:48:12;9.07;;;3.85;;
57199;SDS011;43061;43.902;22.266;2022-08-11T13:50:39;7.20;;;4.00;;
57199;SDS011;43061;43.902;22.266;2022-08-11T13:53:29;6.03;;;3.58;;
57199;SDS011;43061;43.902;22.266;2022-08-11T13:55:56;7.85;;;3.75;;
57199;SDS011;43061;43.902;22.266;2022-08-11T13:58:24;9.80;;;4.00;;
57199;SDS011;43061;43.902;22.266;2022-08-11T14:00:51;6.68;;;3.60;;
57199;SDS011;43061;43.902;22.266;2022-08-11T14:03:20;6.28;;;3.58;;
57199;SDS011;43061;43.902;22.266;2022-08-11T14:05:48;8.75;;;3.65;;
57199;SDS011;43061;43.902;22.266;2022-08-11T14:08:17;6.18;;;3.58;;
57199;SDS011;43061;43.902;22.266;2022-08-11T14:10:44;6.38;;;3.38;;
57199;SDS011;43061;43.902;22.266;2022-08-11T14:13:32;6.55;;;3.75;;
57199;SDS011;43061;43.902;22.266;2022-08-11T14:16:11;5.70;;;3.47;;
57199;SDS011;43061;43.902;22.266;2022-08-11T14:18:43;5.47;;;3.40;;
57199;SDS011;43061;43.902;22.266;2022-08-11T14:21:10;5.00;;;3.22;;
57199;SDS011;43061;43.902;22.266;2022-08-11T14:23:56;5.35;;;3.58;;
57199;SDS011;43061;43.902;22.266;2022-08-11T14:26:26;7.20;;;3.13;;
57199;SDS011;43061;43.902;22.266;2022-08-11T14:29:00;5.47;;;3.00;;
57199;SDS011;43061;43.902;22.266;2022-08-11T14:31:28;5.13;;;2.97;;
57199;SDS011;43061;43.902;22.266;2022-08-11T14:33:55;8.90;;;2.97;;
57199;SDS011;43061;43.902;22.266;2022-08-11T14:36:22;6.00;;;2.90;;
57199;SDS011;43061;43.902;22.266;2022-08-11T14:38:49;5.68;;;2.67;;
57199;SDS011;43061;43.902;22.266;2022-08-11T14:41:17;6.18;;;2.88;;
57199;SDS011;43061;43.902;22.266;2022-08-11T14:44:02;6.72;;;3.42;;
57199;SDS011;43061;43.902;22.266;2022-08-11T14:46:47;6.57;;;3.10;;
57199;SDS011;43061;43.902;22.266;2022-08-11T14:49:39;5.38;;;2.97;;
57199;SDS011;43061;43.902;22.266;2022-08-11T14:52:10;4.60;;;3.10;;
57199;SDS011;43061;43.902;22.266;2022-08-11T14:54:43;5.57;;;2.83;;
57199;SDS011;43061;43.902;22.266;2022-08-11T14:57:30;5.00;;;2.90;;
57199;SDS011;43061;43.902;22.266;2022-08-11T14:59:57;5.18;;;3.10;;
57199;SDS011;43061;43.902;22.266;2022-08-11T15:02:24;4.53;;;2.83;;
57199;SDS011;43061;43.902;22.266;2022-08-11T15:05:09;5.57;;;3.00;;
57199;SDS011;43061;43.902;22.266;2022-08-11T15:07:36;6.15;;;3.33;;
57199;SDS011;43061;43.902;22.266;2022-08-11T15:10:05;5.35;;;3.42;;
57199;SDS011;43061;43.902;22.266;2022-08-11T15:12:32;7.60;;;3.65;;
57199;SDS011;43061;43.902;22.266;2022-08-11T15:14:59;7.47;;;3.40;;
57199;SDS011;43061;43.902;22.266;2022-08-11T15:17:44;4.55;;;3.10;;
57199;SDS011;43061;43.902;22.266;2022-08-11T15:20:15;4.70;;;2.97;;
57199;SDS011;43061;43.902;22.266;2022-08-11T15:23:01;5.70;;;3.00;;
57199;SDS011;43061;43.902;22.266;2022-08-11T15:28:33;9.90;;;3.42;;
57199;SDS011;43061;43.902;22.266;2022-08-11T15:31:20;5.22;;;3.10;;
57199;SDS011;43061;43.902;22.266;2022-08-11T15:34:10;20.42;;;3.40;;
57199;SDS011;43061;43.902;22.266;2022-08-11T15:40:24;5.22;;;3.00;;
57199;SDS011;43061;43.902;22.266;2022-08-11T15:43:21;6.13;;;3.65;;
57199;SDS011;43061;43.902;22.266;2022-08-11T15:46:07;5.55;;;3.10;;
57199;SDS011;43061;43.902;22.266;2022-08-11T15:51:16;5.68;;;2.83;;
57199;SDS011;43061;43.902;22.266;2022-08-11T15:53:48;6.07;;;3.20;;
57199;SDS011;43061;43.902;22.266;2022-08-11T15:56:16;7.30;;;3.30;;
57199;SDS011;43061;43.902;22.266;2022-08-11T15:58:43;9.52;;;6.60;;
57199;SDS011;43061;43.902;22.266;2022-08-11T16:01:29;7.20;;;5.60;;
57199;SDS011;43061;43.902;22.266;2022-08-11T16:04:15;7.95;;;3.20;;
57199;SDS011;43061;43.902;22.266;2022-08-11T16:09:16;6.70;;;3.50;;
57199;SDS011;43061;43.902;22.266;2022-08-11T16:11:42;6.22;;;3.45;;
57199;SDS011;43061;43.902;22.266;2022-08-11T16:14:09;7.32;;;3.80;;
57199;SDS011;43061;43.902;22.266;2022-08-11T16:16:54;5.47;;;3.65;;
57199;SDS011;43061;43.902;22.266;2022-08-11T16:19:22;7.50;;;3.50;;
57199;SDS011;43061;43.902;22.266;2022-08-11T16:21:50;7.85;;;3.70;;
57199;SDS011;43061;43.902;22.266;2022-08-11T16:24:18;6.18;;;3.30;;
57199;SDS011;43061;43.902;22.266;2022-08-11T16:26:44;5.57;;;3.60;;
57199;SDS011;43061;43.902;22.266;2022-08-11T16:29:12;6.70;;;3.35;;
57199;SDS011;43061;43.902;22.266;2022-08-11T16:31:39;6.78;;;3.78;;
57199;SDS011;43061;43.902;22.266;2022-08-11T16:34:06;6.10;;;3.60;;
57199;SDS011;43061;43.902;22.266;2022-08-11T16:36:55;7.07;;;3.72;;
57199;SDS011;43061;43.902;22.266;2022-08-11T16:39:40;7.45;;;3.63;;
57199;SDS011;43061;43.902;22.266;2022-08-11T16:42:06;5.57;;;3.83;;
57199;SDS011;43061;43.902;22.266;2022-08-11T16:44:52;6.47;;;3.65;;
57199;SDS011;43061;43.902;22.266;2022-08-11T16:47:39;7.07;;;3.80;;
57199;SDS011;43061;43.902;22.266;2022-08-11T16:50:06;5.78;;;3.53;;
57199;SDS011;43061;43.902;22.266;2022-08-11T16:52:33;6.90;;;3.67;;
57199;SDS011;43061;43.902;22.266;2022-08-11T16:54:59;6.72;;;3.83;;
57199;SDS011;43061;43.902;22.266;2022-08-11T16:57:28;9.23;;;4.38;;
57199;SDS011;43061;43.902;22.266;2022-08-11T17:00:15;7.00;;;4.70;;
57199;SDS011;43061;43.902;22.266;2022-08-11T17:02:45;7.75;;;4.80;;
57199;SDS011;43061;43.902;22.266;2022-08-11T17:05:31;9.60;;;5.15;;
57199;SDS011;43061;43.902;22.266;2022-08-11T17:08:17;7.28;;;4.90;;
57199;SDS011;43061;43.902;22.266;2022-08-11T17:11:04;9.60;;;5.75;;
57199;SDS011;43061;43.902;22.266;2022-08-11T17:13:58;8.75;;;5.55;;
57199;SDS011;43061;43.902;22.266;2022-08-11T17:16:27;7.22;;;4.88;;
57199;SDS011;43061;43.902;22.266;2022-08-11T17:18:57;10.43;;;4.50;;
57199;SDS011;43061;43.902;22.266;2022-08-11T17:21:25;8.00;;;4.65;;
57199;SDS011;43061;43.902;22.266;2022-08-11T17:23:55;8.30;;;4.53;;
57199;SDS011;43061;43.902;22.266;2022-08-11T17:26:23;8.90;;;4.68;;
57199;SDS011;43061;43.902;22.266;2022-08-11T17:28:55;10.80;;;4.95;;
57199;SDS011;43061;43.902;22.266;2022-08-11T17:31:22;22.42;;;5.53;;
57199;SDS011;43061;43.902;22.266;2022-08-11T17:34:08;9.13;;;4.70;;
57199;SDS011;43061;43.902;22.266;2022-08-11T17:36:53;8.77;;;4.95;;
57199;SDS011;43061;43.902;22.266;2022-08-11T17:39:20;7.50;;;4.88;;
57199;SDS011;43061;43.902;22.266;2022-08-11T17:41:47;9.27;;;4.80;;
57199;SDS011;43061;43.902;22.266;2022-08-11T17:44:33;10.88;;;5.40;;
57199;SDS011;43061;43.902;22.266;2022-08-11T17:47:37;17.75;;;5.35;;
57199;SDS011;43061;43.902;22.266;2022-08-11T17:50:23;12.38;;;6.00;;
57199;SDS011;43061;43.902;22.266;2022-08-11T17:52:50;11.27;;;6.35;;
57199;SDS011;43061;43.902;22.266;2022-08-11T17:55:35;11.68;;;6.88;;
57199;SDS011;43061;43.902;22.266;2022-08-11T17:58:20;11.65;;;5.90;;
57199;SDS011;43061;43.902;22.266;2022-08-11T18:01:07;10.98;;;4.88;;
57199;SDS011;43061;43.902;22.266;2022-08-11T18:03:35;10.10;;;5.13;;
57199;SDS011;43061;43.902;22.266;2022-08-11T18:06:03;11.88;;;6.45;;
57199;SDS011;43061;43.902;22.266;2022-08-11T18:08:30;13.70;;;5.68;;
57199;SDS011;43061;43.902;22.266;2022-08-11T18:11:16;10.15;;;5.55;;
57199;SDS011;43061;43.902;22.266;2022-08-11T18:14:02;13.23;;;4.70;;
57199;SDS011;43061;43.902;22.266;2022-08-11T18:16:47;18.85;;;6.78;;
57199;SDS011;43061;43.902;22.266;2022-08-11T18:19:32;8.65;;;4.38;;
57199;SDS011;43061;43.902;22.266;2022-08-11T18:22:28;5.15;;;3.83;;
57199;SDS011;43061;43.902;22.266;2022-08-11T18:25:15;7.65;;;4.20;;
57199;SDS011;43061;43.902;22.266;2022-08-11T18:28:00;7.35;;;4.25;;
57199;SDS011;43061;43.902;22.266;2022-08-11T18:30:49;8.10;;;4.65;;
57199;SDS011;43061;43.902;22.266;2022-08-11T18:33:53;9.85;;;4.35;;
57199;SDS011;43061;43.902;22.266;2022-08-11T18:36:44;8.20;;;4.55;;
57199;SDS011;43061;43.902;22.266;2022-08-11T18:42:15;6.65;;;4.43;;
57199;SDS011;43061;43.902;22.266;2022-08-11T18:45:02;7.43;;;4.38;;
57199;SDS011;43061;43.902;22.266;2022-08-11T18:47:47;8.93;;;4.43;;
57199;SDS011;43061;43.902;22.266;2022-08-11T18:50:33;7.15;;;4.60;;
57199;SDS011;43061;43.902;22.266;2022-08-11T18:53:19;27.58;;;18.77;;
57199;SDS011;43061;43.902;22.266;2022-08-11T18:56:04;8.40;;;4.40;;
57199;SDS011;43061;43.902;22.266;2022-08-11T18:58:48;7.28;;;4.20;;